Martelle, Iowa
Current Conditions -  °F | °C
As of 7:55 PM on Saturday 22 Nov 2014 (Local Time) from KMXO Reporting Station
Overcast Overcast  
Wind Chill: 52°   Ceiling: 900
Heat Index: 52°   Visibility: 7mi
Dew Point: 52°   Wind: 15mph
Humidity: 100%   Direction: 180°S
Pressure: 29.73"   Gusts: 21mph
Location:  42.02°N, 91.36°W
Report Text: KMXO 230155Z AUTO 18013G18KT 7SM BKN009 OVC015 11/11 A2973 RMK AO2
Loading
Personal Weather Stations






























Interactive Weather Map New forecast layout! Learn more

10-Day Weather Forecast

Advertisements
Track Severe Weather on mobile